createdAt,value
2023-01-23T00:00:59.198Z,73.27
2023-01-23T00:03:25.569Z,72.75
2023-01-23T00:05:51.890Z,72.47
2023-01-23T00:08:18.297Z,72.12
2023-01-23T00:10:44.648Z,71.84
2023-01-23T00:13:11.033Z,71.54
2023-01-23T00:15:37.395Z,71.31
2023-01-23T00:18:03.707Z,71.16
2023-01-23T00:20:30.257Z,70.93
2023-01-23T00:22:56.599Z,70.84
2023-01-23T00:25:22.930Z,70.62
2023-01-23T00:27:49.323Z,70.43
2023-01-23T00:30:15.639Z,70.36
2023-01-23T00:32:42.051Z,70.24
2023-01-23T00:35:08.366Z,70.13
2023-01-23T00:37:34.728Z,70.08
2023-01-23T00:40:01.309Z,69.99
2023-01-23T00:42:27.678Z,69.96
2023-01-23T00:44:53.992Z,69.87
2023-01-23T00:47:20.389Z,69.76
2023-01-23T00:49:46.701Z,71.48
2023-01-23T00:52:13.069Z,74.47
2023-01-23T00:54:39.491Z,76.42
2023-01-23T00:57:05.783Z,75.72
2023-01-23T00:59:32.104Z,74.68
2023-01-23T01:01:58.643Z,73.91
2023-01-23T01:04:24.830Z,73.22
2023-01-23T01:06:51.167Z,72.77
2023-01-23T01:09:17.522Z,72.29
2023-01-23T01:11:43.854Z,71.85
2023-01-23T01:14:10.227Z,71.44
2023-01-23T01:16:36.552Z,71.13
2023-01-23T01:19:02.881Z,70.89
2023-01-23T01:21:31.455Z,70.66
2023-01-23T01:23:55.654Z,70.45
2023-01-23T01:26:22.034Z,70.29
2023-01-23T01:28:48.404Z,70.14
2023-01-23T01:31:14.917Z,69.97
2023-01-23T01:33:41.106Z,69.84
2023-01-23T01:36:07.535Z,69.73
2023-01-23T01:38:33.880Z,69.59
2023-01-23T01:41:00.254Z,69.38
2023-01-23T01:43:26.599Z,69.39
2023-01-23T01:45:52.978Z,69.35
2023-01-23T01:48:19.334Z,69.29
2023-01-23T01:50:45.752Z,69.18
2023-01-23T01:53:12.073Z,69.13
2023-01-23T01:55:38.403Z,71.10
2023-01-23T01:58:04.791Z,74.02
2023-01-23T02:00:31.165Z,76.13
2023-01-23T02:02:57.488Z,75.50
2023-01-23T02:05:23.835Z,74.42
2023-01-23T02:07:50.156Z,73.53
2023-01-23T02:10:16.545Z,72.69
2023-01-23T02:12:42.905Z,72.14
2023-01-23T02:15:09.235Z,71.61
2023-01-23T02:17:35.599Z,71.28
2023-01-23T02:20:01.985Z,70.90
2023-01-23T02:22:28.301Z,70.63
2023-01-23T02:24:54.653Z,70.21
2023-01-23T02:27:21.086Z,70.00
2023-01-23T02:29:47.450Z,69.85
2023-01-23T02:32:13.777Z,69.66
2023-01-23T02:34:40.192Z,69.47
2023-01-23T02:37:06.512Z,69.26
2023-01-23T02:39:32.897Z,69.08
2023-01-23T02:41:59.255Z,69.03
2023-01-23T02:44:25.627Z,68.91
2023-01-23T02:46:51.994Z,68.87
2023-01-23T02:49:18.367Z,68.73
2023-01-23T02:51:44.686Z,68.68
2023-01-23T02:54:11.123Z,68.62
2023-01-23T02:56:37.408Z,68.52
2023-01-23T02:59:03.787Z,68.49
2023-01-23T03:01:30.147Z,69.92
2023-01-23T03:03:56.555Z,72.84
2023-01-23T03:06:22.911Z,75.51
2023-01-23T03:08:49.248Z,75.33
2023-01-23T03:11:15.632Z,74.27
2023-01-23T03:13:42.035Z,73.22
2023-01-23T03:16:08.443Z,72.47
2023-01-23T03:18:48.961Z,71.82
2023-01-23T03:21:01.115Z,71.29
2023-01-23T03:23:27.450Z,70.73
2023-01-23T03:25:53.855Z,70.27
2023-01-23T03:28:20.215Z,69.97
2023-01-23T03:30:46.595Z,69.68
2023-01-23T03:33:12.950Z,69.45
2023-01-23T03:35:39.304Z,69.33
2023-01-23T03:38:05.666Z,69.08
2023-01-23T03:40:32.032Z,68.94
2023-01-23T03:42:58.368Z,68.80
2023-01-23T03:45:24.740Z,68.59
2023-01-23T03:47:51.083Z,68.45
2023-01-23T03:50:17.655Z,68.35
2023-01-23T03:52:43.816Z,68.20
2023-01-23T03:55:10.155Z,68.11
2023-01-23T03:57:36.514Z,68.00
2023-01-23T04:00:02.948Z,67.91
2023-01-23T04:02:29.245Z,67.82
2023-01-23T04:04:55.565Z,67.75
2023-01-23T04:07:21.893Z,68.47
2023-01-23T04:09:48.287Z,71.06
2023-01-23T04:12:14.611Z,73.81
2023-01-23T04:14:40.955Z,75.42
2023-01-23T04:17:07.353Z,74.38
2023-01-23T04:19:33.720Z,73.27
2023-01-23T04:22:00.042Z,72.31
2023-01-23T04:24:26.407Z,71.46
2023-01-23T04:26:52.725Z,70.80
2023-01-23T04:29:19.069Z,70.28
2023-01-23T04:31:45.571Z,69.88
2023-01-23T04:34:11.834Z,69.54
2023-01-23T04:36:38.195Z,69.25
2023-01-23T04:39:04.543Z,68.99
2023-01-23T04:41:30.859Z,68.80
2023-01-23T04:43:57.201Z,68.52
2023-01-23T04:46:23.845Z,68.42
2023-01-23T04:48:50.119Z,68.30
2023-01-23T04:51:16.499Z,68.13
2023-01-23T04:53:42.830Z,67.96
2023-01-23T04:56:09.141Z,67.90
2023-01-23T04:58:35.487Z,67.83
2023-01-23T05:01:01.840Z,67.68
2023-01-23T05:03:28.167Z,67.62
2023-01-23T05:05:54.527Z,67.54
2023-01-23T05:08:20.860Z,67.43
2023-01-23T05:10:47.181Z,67.31
2023-01-23T05:13:13.557Z,67.23
2023-01-23T05:15:39.952Z,69.05
2023-01-23T05:18:06.336Z,71.60
2023-01-23T05:20:32.668Z,74.15
2023-01-23T05:22:59.038Z,75.08
2023-01-23T05:25:25.386Z,73.99
2023-01-23T05:27:51.815Z,72.78
2023-01-23T05:30:18.249Z,71.75
2023-01-23T05:32:44.531Z,70.90
2023-01-23T05:35:10.903Z,70.25
2023-01-23T05:37:37.245Z,69.80
2023-01-23T05:40:03.606Z,69.36
2023-01-23T05:42:29.984Z,69.00
2023-01-23T05:44:57.445Z,68.60
2023-01-23T05:47:24.819Z,68.28
2023-01-23T05:49:51.145Z,68.03
2023-01-23T05:52:17.555Z,67.80
2023-01-23T05:54:43.868Z,74.99
2023-01-23T05:57:10.251Z,82.35
2023-01-23T05:59:36.783Z,82.08
2023-01-23T06:02:03.122Z,82.12
2023-01-23T06:04:29.443Z,82.19
2023-01-23T06:06:55.832Z,82.41
2023-01-23T06:09:22.228Z,82.76
2023-01-23T06:11:48.609Z,82.98
2023-01-23T06:14:14.976Z,83.23
2023-01-23T06:16:41.296Z,83.48
2023-01-23T06:19:07.658Z,83.66
2023-01-23T06:21:34.035Z,83.92
2023-01-23T06:24:00.386Z,84.26
2023-01-23T06:26:26.780Z,84.33
2023-01-23T06:28:53.331Z,84.49
2023-01-23T06:31:19.755Z,84.79
2023-01-23T06:33:46.157Z,84.99
2023-01-23T06:36:12.535Z,85.11
2023-01-23T06:38:38.889Z,85.29
2023-01-23T06:41:05.338Z,85.29
2023-01-23T06:43:31.658Z,85.46
2023-01-23T06:45:58.502Z,85.59
2023-01-23T06:48:24.842Z,85.85
2023-01-23T06:50:51.301Z,86.00
2023-01-23T06:53:17.585Z,86.21
2023-01-23T06:55:44.223Z,86.57
2023-01-23T06:58:10.580Z,86.76
2023-01-23T07:00:36.922Z,87.05
2023-01-23T07:03:03.332Z,87.29
2023-01-23T07:05:29.690Z,87.55
2023-01-23T07:07:56.069Z,87.73
2023-01-23T07:10:22.591Z,87.90
2023-01-23T07:12:48.805Z,88.24
2023-01-23T07:15:15.194Z,88.51
2023-01-23T07:17:41.522Z,88.84
2023-01-23T07:20:07.913Z,88.98
2023-01-23T07:22:34.230Z,89.03
2023-01-23T07:25:00.620Z,89.15
2023-01-23T07:27:26.980Z,89.33
2023-01-23T07:29:53.314Z,89.45
2023-01-23T07:32:19.938Z,89.76
2023-01-23T07:34:46.319Z,89.98
2023-01-23T07:37:12.682Z,90.03
2023-01-23T07:39:39.087Z,90.12
2023-01-23T07:42:05.807Z,90.33
2023-01-23T07:44:32.175Z,90.45
2023-01-23T07:46:58.536Z,90.42
2023-01-23T07:49:24.887Z,90.52
2023-01-23T07:51:51.329Z,90.79
2023-01-23T07:54:17.741Z,90.81
2023-01-23T07:56:44.021Z,90.94
2023-01-23T07:59:10.361Z,91.10
2023-01-23T08:01:36.826Z,91.17
2023-01-23T08:04:03.236Z,91.30
2023-01-23T08:06:29.568Z,91.49
2023-01-23T08:08:55.955Z,91.81
2023-01-23T08:11:22.272Z,92.06
2023-01-23T08:13:48.625Z,92.19
2023-01-23T08:16:15.134Z,92.24
2023-01-23T08:18:41.437Z,92.49
2023-01-23T08:21:07.864Z,92.82
2023-01-23T08:23:34.237Z,93.11
2023-01-23T08:26:00.536Z,93.28
2023-01-23T08:28:27.061Z,93.40
2023-01-23T08:30:53.372Z,93.57
2023-01-23T08:33:19.892Z,93.62
2023-01-23T08:35:46.317Z,93.78
2023-01-23T08:38:12.699Z,93.83
2023-01-23T08:40:39.067Z,93.81
2023-01-23T08:43:05.442Z,93.84
2023-01-23T08:45:31.907Z,93.76
2023-01-23T08:47:58.242Z,93.97
2023-01-23T08:50:24.631Z,94.12
2023-01-23T08:52:51.089Z,94.18
2023-01-23T08:55:17.562Z,94.08
2023-01-23T08:57:43.907Z,94.44
2023-01-23T09:00:10.575Z,94.59
2023-01-23T09:02:36.911Z,94.59
2023-01-23T09:05:03.280Z,94.52
2023-01-23T09:07:29.666Z,94.31
2023-01-23T09:09:56.083Z,94.27
2023-01-23T09:12:22.451Z,93.86
2023-01-23T09:14:48.805Z,93.89
2023-01-23T09:17:15.260Z,93.43
2023-01-23T09:19:41.579Z,92.89
2023-01-23T09:22:07.973Z,92.47
2023-01-23T09:24:34.391Z,92.31
2023-01-23T09:27:00.788Z,91.57
2023-01-23T09:29:27.111Z,91.63
2023-01-23T09:31:53.535Z,91.26
2023-01-23T09:34:19.857Z,91.33
2023-01-23T09:36:46.184Z,91.25
2023-01-23T09:39:12.550Z,91.39
2023-01-23T09:41:38.855Z,91.35
2023-01-23T09:44:05.215Z,91.53
2023-01-23T09:46:31.558Z,91.76
2023-01-23T09:48:57.930Z,91.90
2023-01-23T09:51:24.718Z,91.96
2023-01-23T09:53:51.018Z,91.91
2023-01-23T09:56:17.361Z,91.95
2023-01-23T09:58:43.700Z,92.23
2023-01-23T10:01:10.108Z,92.30
2023-01-23T10:03:36.705Z,91.98
2023-01-23T10:06:03.217Z,92.07
2023-01-23T10:08:29.630Z,92.22
2023-01-23T10:10:56.006Z,92.52
2023-01-23T10:13:22.337Z,92.35
2023-01-23T10:15:48.721Z,92.22
2023-01-23T10:18:15.093Z,92.61
2023-01-23T10:20:41.422Z,92.99
2023-01-23T10:23:07.750Z,93.25
2023-01-23T10:25:34.126Z,93.28
2023-01-23T10:28:00.478Z,93.66
2023-01-23T10:30:26.908Z,93.99
2023-01-23T10:32:53.177Z,94.15
2023-01-23T10:35:19.817Z,94.39
2023-01-23T10:37:45.900Z,94.57
2023-01-23T10:40:12.323Z,94.47
2023-01-23T10:42:38.678Z,94.56
2023-01-23T10:45:05.016Z,94.68
2023-01-23T10:47:33.198Z,94.74
2023-01-23T10:49:57.809Z,95.00
2023-01-23T10:52:24.167Z,95.04
2023-01-23T10:54:50.701Z,95.07
2023-01-23T10:57:17.057Z,95.09
2023-01-23T10:59:43.433Z,95.33
2023-01-23T11:02:09.897Z,95.46
2023-01-23T11:04:36.181Z,95.59
2023-01-23T11:07:02.530Z,95.91
2023-01-23T11:09:28.909Z,96.15
2023-01-23T11:11:55.243Z,96.30
2023-01-23T11:14:21.660Z,96.52
2023-01-23T11:16:48.278Z,96.78
2023-01-23T11:19:14.625Z,97.03
2023-01-23T11:21:41.017Z,97.06
2023-01-23T11:24:07.389Z,97.13
2023-01-23T11:26:33.711Z,97.37
2023-01-23T11:29:00.123Z,97.54
2023-01-23T11:31:26.640Z,97.53
2023-01-23T11:33:52.940Z,97.55
2023-01-23T11:36:19.261Z,97.76
2023-01-23T11:38:52.591Z,97.84
2023-01-23T11:41:11.984Z,98.22
2023-01-23T11:43:38.376Z,98.44
2023-01-23T11:46:04.795Z,98.41
2023-01-23T11:48:31.138Z,98.53
2023-01-23T11:50:57.520Z,98.58
2023-01-23T11:53:33.535Z,99.38
2023-01-23T11:55:50.177Z,99.58
2023-01-23T11:58:16.555Z,99.59
2023-01-23T12:00:42.892Z,99.56
2023-01-23T12:03:09.281Z,99.52
2023-01-23T12:05:35.597Z,99.63
2023-01-23T12:08:02.287Z,99.70
2023-01-23T12:10:28.642Z,99.51
2023-01-23T12:12:55.015Z,99.65
2023-01-23T12:15:21.434Z,99.67
2023-01-23T12:17:47.775Z,99.64
2023-01-23T12:20:14.124Z,99.67
2023-01-23T12:22:40.465Z,99.86
2023-01-23T12:25:07.151Z,100.00
2023-01-23T12:27:33.537Z,100.00
2023-01-23T12:29:59.891Z,100.00
2023-01-23T12:32:26.307Z,100.00
2023-01-23T12:34:52.694Z,100.00
2023-01-23T12:37:29.942Z,100.00
2023-01-23T12:39:45.396Z,100.00
2023-01-23T12:42:11.778Z,100.00
2023-01-23T12:44:38.131Z,100.00
2023-01-23T12:47:04.567Z,100.00
2023-01-23T12:49:30.873Z,100.00
2023-01-23T12:51:57.294Z,100.00
2023-01-23T12:54:23.624Z,100.00
2023-01-23T12:59:16.369Z,100.00
2023-01-23T13:01:42.719Z,100.00
2023-01-23T13:04:09.027Z,100.00
2023-01-23T13:06:35.397Z,100.00
2023-01-23T13:09:12.473Z,100.00
2023-01-23T13:11:28.240Z,100.00
2023-01-23T13:13:54.545Z,100.00
2023-01-23T13:16:21.179Z,100.00
2023-01-23T13:18:47.508Z,100.00
2023-01-23T13:21:13.900Z,100.00
2023-01-23T13:23:40.287Z,100.00
2023-01-23T13:26:06.624Z,100.00
2023-01-23T13:28:43.950Z,100.00
2023-01-23T13:30:59.525Z,100.00
2023-01-23T13:33:25.831Z,100.00
2023-01-23T13:35:52.212Z,100.00
2023-01-23T13:38:18.537Z,100.00
2023-01-23T13:40:45.157Z,100.00
2023-01-23T13:43:11.222Z,100.00
2023-01-23T13:45:37.642Z,100.00
2023-01-23T13:48:04.038Z,100.00
2023-01-23T13:50:30.472Z,100.00
2023-01-23T13:52:56.839Z,100.00
2023-01-23T13:55:23.295Z,100.00
2023-01-23T13:57:49.972Z,100.00
2023-01-23T14:00:16.307Z,100.00
2023-01-23T14:02:42.668Z,100.00
2023-01-23T14:05:09.057Z,100.00
2023-01-23T14:07:35.375Z,100.00
2023-01-23T14:10:01.763Z,100.00
2023-01-23T14:12:28.136Z,100.00
2023-01-23T14:14:54.619Z,100.00
2023-01-23T14:17:20.926Z,100.00
2023-01-23T14:19:47.276Z,100.00
2023-01-23T14:22:13.656Z,100.00
2023-01-23T14:24:40.154Z,100.00
2023-01-23T14:27:08.197Z,100.00
2023-01-23T14:29:32.968Z,100.00
2023-01-23T14:31:59.399Z,100.00
2023-01-23T14:34:25.793Z,100.00
2023-01-23T14:36:52.126Z,100.00
2023-01-23T14:39:18.439Z,100.00
2023-01-23T14:41:46.291Z,100.00
2023-01-23T14:44:13.557Z,100.00
2023-01-23T14:46:39.994Z,100.00
2023-01-23T14:49:06.419Z,100.00
2023-01-23T14:51:32.849Z,100.00
2023-01-23T14:53:59.273Z,100.00
2023-01-23T14:56:26.370Z,100.00
2023-01-23T14:58:51.893Z,100.00
2023-01-23T15:01:18.364Z,100.00
2023-01-23T15:03:44.643Z,100.00
2023-01-23T15:06:11.022Z,100.00
2023-01-23T15:08:37.402Z,100.00
2023-01-23T15:11:03.748Z,100.00
2023-01-23T15:13:30.165Z,100.00
2023-01-23T15:15:56.830Z,100.00
2023-01-23T15:18:23.202Z,100.00
2023-01-23T15:20:49.550Z,100.00
2023-01-23T15:23:16.155Z,100.00
2023-01-23T15:25:42.551Z,100.00
2023-01-23T15:28:09.088Z,100.00
2023-01-23T15:30:36.763Z,100.00
2023-01-23T15:33:03.045Z,100.00
2023-01-23T15:35:29.396Z,100.00
2023-01-23T15:37:55.730Z,100.00
2023-01-23T15:40:22.067Z,100.00
2023-01-23T15:42:48.502Z,100.00
2023-01-23T15:45:14.867Z,100.00
2023-01-23T15:47:41.207Z,100.00
2023-01-23T15:50:07.752Z,100.00
2023-01-23T15:52:34.462Z,100.00
2023-01-23T15:55:00.848Z,100.00
2023-01-23T15:57:27.168Z,100.00
2023-01-23T15:59:53.546Z,100.00
2023-01-23T16:02:39.377Z,100.00
2023-01-23T16:04:46.572Z,100.00
2023-01-23T16:07:12.896Z,100.00
2023-01-23T16:09:39.621Z,100.00
2023-01-23T16:12:05.984Z,100.00
2023-01-23T16:14:32.753Z,100.00
2023-01-23T16:17:11.371Z,100.00
2023-01-23T16:19:25.577Z,100.00
2023-01-23T16:22:03.438Z,100.00
2023-01-23T16:24:18.593Z,100.00
2023-01-23T16:26:44.863Z,100.00
2023-01-23T16:29:14.099Z,100.00
2023-01-23T16:31:38.940Z,100.00
2023-01-23T16:34:05.206Z,100.00
2023-01-23T16:36:31.567Z,100.00
2023-01-23T16:38:57.969Z,100.00
2023-01-23T16:41:24.323Z,100.00
2023-01-23T16:43:50.792Z,100.00
2023-01-23T16:46:17.157Z,100.00
2023-01-23T16:48:43.459Z,100.00
2023-01-23T16:51:09.790Z,100.00
2023-01-23T16:53:36.280Z,100.00
2023-01-23T16:56:02.669Z,100.00
2023-01-23T16:58:29.022Z,100.00
2023-01-23T17:00:55.416Z,100.00
2023-01-23T17:03:21.873Z,100.00
2023-01-23T17:05:48.350Z,100.00
2023-01-23T17:08:15.748Z,100.00
2023-01-23T17:10:46.501Z,100.00
2023-01-23T17:13:08.482Z,100.00
2023-01-23T17:15:34.817Z,100.00
2023-01-23T17:18:03.686Z,100.00
2023-01-23T17:20:30.082Z,100.00
2023-01-23T17:22:56.465Z,100.00
2023-01-23T17:25:22.781Z,100.00
2023-01-23T17:28:06.911Z,100.00
2023-01-23T17:30:15.735Z,100.00
2023-01-23T17:32:42.076Z,100.00
2023-01-23T17:35:08.526Z,100.00
2023-01-23T17:37:34.851Z,100.00
2023-01-23T17:40:01.219Z,100.00
2023-01-23T17:42:27.645Z,100.00
2023-01-23T17:44:53.988Z,100.00
2023-01-23T17:47:20.324Z,100.00
2023-01-23T17:49:46.776Z,100.00
2023-01-23T17:52:13.152Z,100.00
2023-01-23T17:54:39.518Z,100.00
2023-01-23T17:57:06.192Z,100.00
2023-01-23T17:59:32.753Z,100.00
2023-01-23T18:01:59.393Z,100.00
2023-01-23T18:04:25.701Z,100.00
2023-01-23T18:06:52.099Z,100.00
2023-01-23T18:09:18.417Z,100.00
2023-01-23T18:11:44.809Z,100.00
2023-01-23T18:14:11.167Z,100.00
2023-01-23T18:16:37.567Z,100.00
2023-01-23T18:19:03.902Z,100.00
2023-01-23T18:21:31.662Z,100.00
2023-01-23T18:23:58.077Z,100.00
2023-01-23T18:26:24.425Z,100.00
2023-01-23T18:28:50.788Z,100.00
2023-01-23T18:31:17.285Z,100.00
2023-01-23T18:33:43.493Z,100.00
2023-01-23T18:36:09.876Z,100.00
2023-01-23T18:38:36.245Z,100.00
2023-01-23T18:41:02.638Z,100.00
2023-01-23T18:43:28.981Z,100.00
2023-01-23T18:45:56.588Z,100.00
2023-01-23T18:48:25.504Z,100.00
2023-01-23T18:50:48.085Z,100.00
2023-01-23T18:53:16.391Z,100.00
2023-01-23T18:55:40.938Z,100.00
2023-01-23T18:58:07.309Z,100.00
2023-01-23T19:00:33.735Z,100.00
2023-01-23T19:03:00.109Z,100.00
2023-01-23T19:05:26.533Z,100.00
2023-01-23T19:07:52.884Z,100.00
2023-01-23T19:10:19.216Z,100.00
2023-01-23T19:12:45.551Z,100.00
2023-01-23T19:15:11.929Z,100.00
2023-01-23T19:17:38.450Z,100.00
2023-01-23T19:20:04.793Z,100.00
2023-01-23T19:22:31.201Z,100.00
2023-01-23T19:24:57.596Z,100.00
2023-01-23T19:27:24.000Z,100.00
2023-01-23T19:29:52.731Z,100.00
2023-01-23T19:32:19.167Z,100.00
2023-01-23T19:34:45.608Z,100.00
2023-01-23T19:37:11.936Z,100.00
2023-01-23T19:39:38.348Z,100.00
2023-01-23T19:42:04.704Z,100.00
2023-01-23T19:44:31.113Z,100.00
2023-01-23T19:46:57.541Z,100.00
2023-01-23T19:49:24.045Z,100.00
2023-01-23T19:51:50.402Z,100.00
2023-01-23T19:54:17.005Z,100.00
2023-01-23T19:56:43.376Z,100.00
2023-01-23T19:59:09.783Z,100.00
2023-01-23T20:01:36.065Z,100.00
2023-01-23T20:04:02.461Z,100.00
2023-01-23T20:06:28.827Z,100.00
2023-01-23T20:08:55.225Z,100.00
2023-01-23T20:11:21.600Z,100.00
2023-01-23T20:13:48.310Z,100.00
2023-01-23T20:16:14.649Z,100.00
2023-01-23T20:18:40.993Z,100.00
2023-01-23T20:21:07.710Z,100.00
2023-01-23T20:23:34.309Z,100.00
2023-01-23T20:26:00.670Z,100.00
2023-01-23T20:28:27.031Z,100.00
2023-01-23T20:30:53.440Z,100.00
2023-01-23T20:33:19.937Z,100.00
2023-01-23T20:35:46.299Z,100.00
2023-01-23T20:38:13.098Z,100.00
2023-01-23T20:40:39.441Z,100.00
2023-01-23T20:43:05.862Z,100.00
2023-01-23T20:45:32.272Z,100.00
2023-01-23T20:47:58.906Z,100.00
2023-01-23T20:50:25.262Z,100.00
2023-01-23T20:52:51.669Z,100.00
2023-01-23T20:55:18.187Z,100.00
2023-01-23T20:57:45.025Z,100.00
2023-01-23T21:00:11.355Z,100.00
2023-01-23T21:02:37.742Z,100.00
2023-01-23T21:05:04.070Z,100.00
2023-01-23T21:07:30.457Z,100.00
2023-01-23T21:09:58.889Z,100.00
2023-01-23T21:12:27.754Z,100.00
2023-01-23T21:14:54.080Z,100.00
2023-01-23T21:17:20.585Z,100.00
2023-01-23T21:19:46.917Z,100.00
2023-01-23T21:22:13.260Z,100.00
2023-01-23T21:24:39.670Z,100.00
2023-01-23T21:27:06.043Z,100.00
2023-01-23T21:29:32.360Z,100.00
2023-01-23T21:31:58.970Z,100.00
2023-01-23T21:34:25.286Z,100.00
2023-01-23T21:36:51.647Z,100.00
2023-01-23T21:39:19.112Z,100.00
2023-01-23T21:41:45.459Z,100.00
2023-01-23T21:44:11.897Z,100.00
2023-01-23T21:46:38.483Z,100.00
2023-01-23T21:49:04.820Z,100.00
2023-01-23T21:51:31.211Z,100.00
2023-01-23T21:53:57.588Z,100.00
2023-01-23T21:56:23.938Z,100.00
2023-01-23T21:58:50.668Z,100.00
2023-01-23T22:01:17.131Z,100.00
2023-01-23T22:03:43.620Z,100.00
2023-01-23T22:06:09.958Z,100.00
2023-01-23T22:08:36.334Z,100.00
2023-01-23T22:11:02.936Z,100.00
2023-01-23T22:13:29.294Z,100.00
2023-01-23T22:15:55.718Z,100.00
2023-01-23T22:18:21.995Z,100.00
2023-01-23T22:20:48.371Z,100.00
2023-01-23T22:23:14.750Z,100.00
2023-01-23T22:25:41.075Z,100.00
2023-01-23T22:28:07.414Z,100.00
2023-01-23T22:30:33.891Z,100.00
2023-01-23T22:33:00.200Z,100.00
2023-01-23T22:35:26.591Z,100.00
2023-01-23T22:37:53.129Z,100.00
2023-01-23T22:40:19.636Z,100.00
2023-01-23T22:42:45.943Z,100.00
2023-01-23T22:45:12.538Z,100.00
2023-01-23T22:47:39.081Z,100.00
2023-01-23T22:50:05.475Z,100.00
2023-01-23T22:52:31.889Z,100.00
2023-01-23T22:54:58.273Z,100.00
2023-01-23T22:57:24.581Z,100.00
2023-01-23T22:59:50.962Z,100.00
2023-01-23T23:02:17.279Z,100.00
2023-01-23T23:04:43.684Z,100.00
2023-01-23T23:07:10.004Z,100.00
2023-01-23T23:09:36.351Z,100.00
2023-01-23T23:12:02.682Z,100.00
2023-01-23T23:14:29.162Z,100.00
2023-01-23T23:16:55.581Z,100.00
2023-01-23T23:19:21.896Z,100.00
2023-01-23T23:21:48.255Z,100.00
2023-01-23T23:24:14.690Z,100.00
2023-01-23T23:26:41.001Z,100.00
2023-01-23T23:29:07.375Z,100.00
2023-01-23T23:31:33.811Z,100.00
2023-01-23T23:34:00.126Z,100.00
2023-01-23T23:36:26.461Z,100.00
2023-01-23T23:38:52.798Z,100.00
2023-01-23T23:41:19.134Z,100.00
2023-01-23T23:43:45.532Z,100.00
2023-01-23T23:46:12.023Z,100.00
2023-01-23T23:48:38.243Z,100.00
2023-01-23T23:51:07.511Z,100.00
2023-01-23T23:53:33.863Z,100.00
2023-01-23T23:56:00.223Z,100.00
2023-01-23T23:58:26.645Z,100.00
